createdAt,value
2023-01-30T00:01:28.403Z,28.65
2023-01-30T00:04:44.779Z,30.08
2023-01-30T00:08:01.632Z,30.73
2023-01-30T00:11:20.554Z,29.50
2023-01-30T00:14:36.749Z,29.85
2023-01-30T00:17:53.052Z,30.80
2023-01-30T00:21:13.357Z,29.13
2023-01-30T00:24:29.955Z,29.63
2023-01-30T00:27:46.361Z,29.73
2023-01-30T00:31:04.061Z,31.63
2023-01-30T00:34:21.907Z,31.48
2023-01-30T00:37:38.075Z,32.40
2023-01-30T00:40:55.513Z,31.03
2023-01-30T00:44:25.644Z,33.43
2023-01-30T00:47:42.233Z,31.38
2023-01-30T00:50:58.502Z,32.68
2023-01-30T00:54:15.887Z,30.25
2023-01-30T00:57:32.272Z,32.20
2023-01-30T01:00:48.821Z,31.55
2023-01-30T01:04:05.111Z,32.58
2023-01-30T01:07:22.166Z,32.13
2023-01-30T01:10:38.472Z,31.40
2023-01-30T01:13:54.698Z,31.85
2023-01-30T01:17:11.218Z,33.33
2023-01-30T01:20:28.439Z,32.43
2023-01-30T01:23:44.689Z,32.00
2023-01-30T01:27:01.119Z,32.50
2023-01-30T01:30:20.671Z,32.50
2023-01-30T01:33:38.332Z,31.55
2023-01-30T01:36:56.416Z,31.53
2023-01-30T01:40:30.344Z,32.93
2023-01-30T01:44:02.463Z,32.73
2023-01-30T01:47:19.620Z,32.78
2023-01-30T01:50:41.516Z,33.63
2023-01-30T01:54:01.949Z,32.55
2023-01-30T01:57:22.379Z,32.53
2023-01-30T02:00:39.804Z,33.95
2023-01-30T02:04:02.743Z,33.13
2023-01-30T02:07:19.625Z,32.08
2023-01-30T02:10:40.489Z,34.53
2023-01-30T02:13:58.545Z,32.35
2023-01-30T02:17:15.218Z,32.35
2023-01-30T02:20:40.638Z,34.33
2023-01-30T02:24:41.829Z,33.98
2023-01-30T02:28:37.659Z,33.78
2023-01-30T02:31:58.323Z,34.13
2023-01-30T02:35:20.966Z,33.00
2023-01-30T02:38:46.997Z,32.20
2023-01-30T02:42:09.989Z,30.35
2023-01-30T02:45:32.466Z,30.25
2023-01-30T02:48:53.470Z,30.30
2023-01-30T02:52:13.408Z,30.40
2023-01-30T02:55:34.038Z,28.68
2023-01-30T02:58:54.377Z,27.85
2023-01-30T03:02:51.362Z,28.45
2023-01-30T03:06:25.454Z,26.88
2023-01-30T03:09:49.991Z,26.13
2023-01-30T03:13:25.958Z,27.03
2023-01-30T03:16:46.251Z,27.83
2023-01-30T03:20:04.078Z,27.65
2023-01-30T03:23:20.980Z,29.30
2023-01-30T03:26:41.660Z,28.25
2023-01-30T03:29:58.371Z,27.25
2023-01-30T03:33:15.207Z,26.88
2023-01-30T03:36:33.582Z,27.35
2023-01-30T03:39:50.124Z,31.40
2023-01-30T03:43:06.765Z,30.75
2023-01-30T03:46:24.400Z,31.00
2023-01-30T03:49:40.697Z,29.65
2023-01-30T03:52:56.854Z,29.85
2023-01-30T03:56:14.009Z,27.85
2023-01-30T03:59:30.607Z,25.70
2023-01-30T04:02:48.816Z,23.10
2023-01-30T04:06:06.136Z,23.60
2023-01-30T04:09:22.589Z,23.90
2023-01-30T04:12:40.153Z,23.78
2023-01-30T04:15:56.617Z,24.40
2023-01-30T04:19:14.785Z,25.63
2023-01-30T04:22:31.252Z,26.03
2023-01-30T04:25:47.379Z,26.63
2023-01-30T04:29:05.274Z,27.38
2023-01-30T04:32:22.319Z,26.73
2023-01-30T04:35:38.754Z,26.70
2023-01-30T04:38:55.200Z,25.28
2023-01-30T04:42:11.795Z,25.93
2023-01-30T04:45:31.340Z,24.58
2023-01-30T04:48:47.864Z,25.63
2023-01-30T04:52:04.547Z,23.73
2023-01-30T04:55:21.131Z,23.83
2023-01-30T04:58:37.708Z,22.80
2023-01-30T05:01:54.843Z,23.95
2023-01-30T05:05:12.035Z,23.55
2023-01-30T05:08:28.226Z,24.03
2023-01-30T05:11:47.858Z,23.55
2023-01-30T05:18:18.196Z,22.23
2023-01-30T05:21:36.276Z,24.08
2023-01-30T05:24:52.945Z,24.03
2023-01-30T05:28:09.376Z,23.68
2023-01-30T05:31:25.773Z,24.80
2023-01-30T05:34:42.008Z,26.30
2023-01-30T05:38:02.938Z,24.30
2023-01-30T05:41:22.766Z,25.00
2023-01-30T05:44:39.126Z,26.43
2023-01-30T05:48:01.552Z,25.25
2023-01-30T05:51:27.015Z,25.58
2023-01-30T05:54:44.014Z,23.73
2023-01-30T05:58:00.306Z,24.78
2023-01-30T06:01:19.638Z,25.00
2023-01-30T06:04:36.310Z,25.75
2023-01-30T06:07:52.494Z,25.73
2023-01-30T06:11:13.846Z,25.23
2023-01-30T06:14:30.138Z,23.08
2023-01-30T06:17:49.445Z,22.25
2023-01-30T06:21:05.779Z,21.77
2023-01-30T06:24:23.548Z,22.08
2023-01-30T06:27:39.791Z,20.93
2023-01-30T06:30:56.629Z,19.70
2023-01-30T06:34:13.120Z,19.68
2023-01-30T06:37:29.492Z,17.93
2023-01-30T06:40:46.189Z,16.65
2023-01-30T06:44:02.502Z,16.95
2023-01-30T06:47:18.776Z,16.78
2023-01-30T06:50:37.511Z,15.48
2023-01-30T06:53:53.835Z,15.55
2023-01-30T06:57:10.535Z,15.45
2023-01-30T07:00:29.295Z,16.33
2023-01-30T07:03:45.790Z,15.10
2023-01-30T07:07:02.190Z,14.68
2023-01-30T07:10:20.219Z,16.18
2023-01-30T07:13:36.686Z,15.30
2023-01-30T07:16:52.990Z,15.35
2023-01-30T07:20:10.154Z,16.20
2023-01-30T07:23:28.319Z,14.93
2023-01-30T07:26:44.903Z,14.23
2023-01-30T07:30:01.789Z,13.85
2023-01-30T07:33:21.303Z,12.50
2023-01-30T07:36:38.633Z,12.63
2023-01-30T07:39:55.138Z,12.70
2023-01-30T07:43:15.335Z,11.18
2023-01-30T07:46:35.975Z,11.33
2023-01-30T07:49:52.604Z,11.45
2023-01-30T07:53:10.783Z,11.73
2023-01-30T07:56:28.132Z,11.60
2023-01-30T07:59:44.693Z,11.83
2023-01-30T08:03:01.083Z,12.38
2023-01-30T08:06:18.176Z,13.18
2023-01-30T08:09:34.578Z,13.50
2023-01-30T08:12:53.989Z,14.73
2023-01-30T08:16:13.928Z,15.03
2023-01-30T08:19:30.841Z,15.10
2023-01-30T08:22:47.656Z,14.88
2023-01-30T08:26:08.225Z,13.73
2023-01-30T08:29:24.914Z,15.15
2023-01-30T08:32:41.175Z,14.10
2023-01-30T08:35:57.669Z,14.58
2023-01-30T08:39:16.663Z,13.38
2023-01-30T08:42:32.873Z,12.57
2023-01-30T08:45:49.354Z,13.75
2023-01-30T08:49:05.400Z,12.70
2023-01-30T08:52:22.138Z,13.25
2023-01-30T08:55:38.310Z,12.70
2023-01-30T08:58:54.778Z,13.93
2023-01-30T09:02:13.933Z,12.23
2023-01-30T09:08:44.470Z,12.85
2023-01-30T09:12:00.941Z,12.33
2023-01-30T09:15:21.080Z,11.73
2023-01-30T09:18:38.469Z,12.18
2023-01-30T09:21:56.372Z,11.48
2023-01-30T09:25:14.474Z,11.18
2023-01-30T09:28:31.388Z,22.63
2023-01-30T09:31:49.383Z,11.05
2023-01-30T09:35:05.918Z,9.73
2023-01-30T09:38:25.182Z,10.95
2023-01-30T09:42:09.630Z,11.08
2023-01-30T09:45:50.858Z,10.73
2023-01-30T09:49:13.824Z,11.33
2023-01-30T09:52:37.062Z,10.73
2023-01-30T09:55:54.856Z,10.50
2023-01-30T09:59:13.160Z,10.75
2023-01-30T10:02:50.202Z,11.18
2023-01-30T10:06:12.614Z,10.90
2023-01-30T10:09:35.647Z,10.88
2023-01-30T10:12:59.519Z,10.70
2023-01-30T10:16:23.969Z,32.88
2023-01-30T10:20:00.183Z,10.30
2023-01-30T10:23:31.630Z,11.53
2023-01-30T10:26:50.382Z,10.40
2023-01-30T10:30:11.587Z,11.00
2023-01-30T10:33:34.622Z,10.93
2023-01-30T10:36:57.569Z,10.88
2023-01-30T10:40:21.076Z,10.53
2023-01-30T10:43:42.416Z,11.05
2023-01-30T10:47:24.371Z,9.48
2023-01-30T10:50:50.246Z,10.05
2023-01-30T10:54:14.220Z,10.33
2023-01-30T10:57:35.349Z,10.63
2023-01-30T11:00:55.695Z,10.08
2023-01-30T11:04:16.676Z,10.05
2023-01-30T11:07:33.213Z,10.48
2023-01-30T11:10:49.583Z,10.45
2023-01-30T11:14:15.145Z,9.98
2023-01-30T11:17:40.172Z,25.40
2023-01-30T11:21:10.705Z,11.18
2023-01-30T11:24:30.752Z,10.85
2023-01-30T11:27:49.556Z,11.88
2023-01-30T11:31:09.687Z,11.80
2023-01-30T11:34:29.389Z,12.35
2023-01-30T11:41:20.067Z,11.73
2023-01-30T11:44:43.151Z,11.98
2023-01-30T11:48:04.687Z,13.05
2023-01-30T11:51:22.022Z,12.33
2023-01-30T11:54:43.236Z,11.80
2023-01-30T11:58:02.841Z,12.28
2023-01-30T12:01:22.794Z,13.18
2023-01-30T12:04:41.273Z,12.25
2023-01-30T12:07:58.921Z,13.10
2023-01-30T12:11:32.772Z,13.45
2023-01-30T12:14:52.921Z,13.00
2023-01-30T12:18:15.452Z,12.68
2023-01-30T12:21:43.163Z,13.93
2023-01-30T12:25:13.270Z,14.05
2023-01-30T12:28:53.664Z,13.28
2023-01-30T12:32:43.331Z,13.80
2023-01-30T12:36:16.800Z,13.85
2023-01-30T12:39:58.020Z,14.23
2023-01-30T12:43:48.265Z,14.08
2023-01-30T12:47:43.793Z,13.75
2023-01-30T12:51:18.940Z,13.93
2023-01-30T12:54:54.432Z,13.65
2023-01-30T12:58:16.654Z,13.48
2023-01-30T13:01:41.359Z,13.98
2023-01-30T13:05:07.569Z,14.55
2023-01-30T13:09:02.602Z,13.93
2023-01-30T13:12:27.532Z,14.20
2023-01-30T13:15:57.959Z,14.00
2023-01-30T13:19:40.394Z,13.58
2023-01-30T13:22:52.748Z,13.78
2023-01-30T13:26:15.253Z,14.33
2023-01-30T13:29:36.821Z,13.83
2023-01-30T13:32:57.560Z,13.75
2023-01-30T13:36:25.589Z,13.18
2023-01-30T13:39:57.005Z,12.63
2023-01-30T14:05:14.528Z,12.28
2023-01-30T14:17:01.538Z,12.95
2023-01-30T14:34:00.260Z,12.00
2023-01-30T14:38:02.573Z,11.88
2023-01-30T14:41:40.335Z,24.40
2023-01-30T14:45:20.935Z,11.65
2023-01-30T14:48:57.665Z,12.23
2023-01-30T14:52:32.645Z,12.00
2023-01-30T14:55:57.927Z,11.30
2023-01-30T15:02:38.650Z,12.13
2023-01-30T15:06:07.591Z,11.70
2023-01-30T15:09:34.277Z,11.33
2023-01-30T15:19:04.322Z,11.00
2023-01-30T15:22:36.109Z,10.90
2023-01-30T15:26:13.464Z,10.50
2023-01-30T15:29:59.749Z,27.83
2023-01-30T15:33:35.725Z,20.30
2023-01-30T15:36:53.703Z,12.08
2023-01-30T15:40:35.862Z,11.00
2023-01-30T15:49:57.645Z,10.48
2023-01-30T15:53:18.853Z,10.80
2023-01-30T15:56:39.679Z,11.25
2023-01-30T16:03:19.477Z,10.83
2023-01-30T16:06:43.472Z,11.20
2023-01-30T16:10:08.032Z,10.38
2023-01-30T16:13:25.534Z,10.65
2023-01-30T16:16:43.499Z,11.23
2023-01-30T16:20:00.295Z,11.53
2023-01-30T16:23:30.644Z,11.03
2023-01-30T16:26:52.150Z,10.80
2023-01-30T16:30:14.016Z,11.48
2023-01-30T16:33:32.617Z,10.33
2023-01-30T16:36:53.857Z,11.13
2023-01-30T16:40:23.889Z,11.30
2023-01-30T16:50:24.945Z,11.10
2023-01-30T16:53:44.865Z,10.30
2023-01-30T17:03:38.610Z,8.95
2023-01-30T17:07:09.481Z,55.33
2023-01-30T17:11:07.672Z,12.60
2023-01-30T17:17:40.120Z,9.23
2023-01-30T17:20:57.057Z,8.35
2023-01-30T17:24:16.574Z,8.43
2023-01-30T17:27:35.088Z,8.30
2023-01-30T17:30:53.555Z,8.18
2023-01-30T17:34:12.328Z,8.00
2023-01-30T17:37:30.423Z,8.33
2023-01-30T17:40:48.700Z,8.00
2023-01-30T17:44:07.185Z,8.37
2023-01-30T17:50:40.377Z,8.23
2023-01-30T17:53:57.159Z,8.80
2023-01-30T17:57:16.691Z,8.50
2023-01-30T18:00:34.045Z,7.53
2023-01-30T18:03:50.735Z,8.68
2023-01-30T18:07:11.825Z,8.20
2023-01-30T18:10:30.944Z,7.83
2023-01-30T18:13:48.601Z,7.65
2023-01-30T18:17:06.155Z,7.13
2023-01-30T18:20:26.993Z,7.00
2023-01-30T18:23:46.748Z,6.63
2023-01-30T18:27:09.149Z,6.53
2023-01-30T18:33:41.974Z,6.58
2023-01-30T18:37:01.657Z,23.33
2023-01-30T18:40:20.976Z,15.35
2023-01-30T18:43:41.816Z,7.35
2023-01-30T18:47:02.183Z,6.05
2023-01-30T18:50:23.164Z,6.40
2023-01-30T18:53:42.265Z,6.33
2023-01-30T18:57:01.052Z,6.10
2023-01-30T19:00:41.986Z,5.58
2023-01-30T19:04:23.034Z,5.78
2023-01-30T19:07:52.209Z,6.75
2023-01-30T19:11:30.547Z,6.50
2023-01-30T19:14:50.221Z,6.00
2023-01-30T19:18:06.898Z,5.65
2023-01-30T19:21:24.679Z,5.55
2023-01-30T19:24:50.651Z,5.58
2023-01-30T19:28:17.996Z,8.48
2023-01-30T19:31:36.998Z,5.65
2023-01-30T19:34:55.373Z,5.73
2023-01-30T19:38:12.167Z,5.40
2023-01-30T19:41:32.867Z,6.13
2023-01-30T19:44:49.755Z,5.73
2023-01-30T19:48:06.609Z,5.35
2023-01-30T19:51:29.947Z,5.95
2023-01-30T19:54:47.762Z,5.73
2023-01-30T19:58:06.267Z,5.18
2023-01-30T20:01:25.275Z,6.28
2023-01-30T20:08:02.070Z,5.83
2023-01-30T20:11:22.845Z,5.95
2023-01-30T20:14:40.818Z,5.90
2023-01-30T20:17:57.557Z,5.98
2023-01-30T20:21:20.216Z,7.35
2023-01-30T20:24:39.393Z,7.55
2023-01-30T20:27:55.690Z,6.63
2023-01-30T20:31:17.460Z,6.15
2023-01-30T20:34:34.495Z,6.38
2023-01-30T20:37:51.337Z,5.78
2023-01-30T20:41:16.124Z,5.60
2023-01-30T20:44:34.410Z,5.58
2023-01-30T20:47:50.943Z,5.75
2023-01-30T20:51:14.494Z,5.63
2023-01-30T20:54:35.156Z,5.83
2023-01-30T20:57:55.575Z,5.48
2023-01-30T21:01:28.026Z,6.30
2023-01-30T21:04:55.746Z,5.35
2023-01-30T21:08:15.659Z,5.53
2023-01-30T21:11:34.185Z,6.03
2023-01-30T21:14:53.675Z,16.03
2023-01-30T21:18:11.712Z,6.55
2023-01-30T21:21:31.645Z,5.30
2023-01-30T21:24:49.169Z,5.60
2023-01-30T21:28:05.514Z,5.50
2023-01-30T21:31:25.689Z,5.88
2023-01-30T21:34:42.136Z,5.48
2023-01-30T21:38:12.450Z,6.33
2023-01-30T21:41:42.641Z,5.80
2023-01-30T21:44:58.985Z,5.88
2023-01-30T21:48:15.970Z,5.85
2023-01-30T21:51:32.969Z,6.23
2023-01-30T21:54:50.710Z,5.80
2023-01-30T21:58:11.147Z,6.68
2023-01-30T22:01:28.102Z,6.63
2023-01-30T22:04:45.654Z,6.68
2023-01-30T22:08:05.689Z,6.83
2023-01-30T22:11:24.759Z,6.40
2023-01-30T22:14:41.061Z,6.33
2023-01-30T22:17:57.832Z,6.08
2023-01-30T22:21:17.761Z,6.70
2023-01-30T22:24:34.341Z,7.05
2023-01-30T22:27:50.512Z,7.00
2023-01-30T22:31:16.641Z,7.95
2023-01-30T22:34:35.624Z,7.03
2023-01-30T22:37:51.354Z,7.55
2023-01-30T22:41:14.760Z,8.05
2023-01-30T22:44:31.417Z,7.80
2023-01-30T22:47:49.496Z,8.35
2023-01-30T22:51:16.636Z,7.75
2023-01-30T22:54:35.772Z,7.80
2023-01-30T22:57:51.952Z,8.40
2023-01-30T23:01:16.866Z,8.50
2023-01-30T23:04:33.771Z,7.90
2023-01-30T23:07:49.969Z,8.35
2023-01-30T23:11:09.373Z,8.45
2023-01-30T23:17:54.756Z,9.40
2023-01-30T23:21:13.329Z,8.40
2023-01-30T23:24:30.483Z,8.68
2023-01-30T23:27:47.200Z,8.10
2023-01-30T23:31:03.516Z,8.33
2023-01-30T23:34:23.456Z,7.68
2023-01-30T23:37:55.166Z,8.48
2023-01-30T23:41:21.387Z,8.10
2023-01-30T23:44:38.107Z,7.00
2023-01-30T23:47:54.239Z,7.38
2023-01-30T23:51:12.263Z,7.68
2023-01-30T23:54:30.282Z,8.28
2023-01-30T23:57:46.717Z,7.48
